Terminal Aerodrome Forecast
Issued by NWS Goodland, KS

Home | Current Version | Previous Version | Text Only | Print | Product List | Glossary On
Versions: 1 2 3 4 5 6 7 8 9 10 11 12
000
FTUS43 KGLD 102320
TAFGLD
TAF
KGLD 102320Z 1100/1124 29010KT P6SM SKC
     FM111100 32012KT P6SM SKC
     FM111600 32020G30KT P6SM SKC=

USA.gov is the U.S. government's official web portal to all federal, state and local government web resources and services.